Latest Weather Observations for Charles Point

IDD60901

Issued at 8:21 pm CST Friday 21 July 2017 (issued every 10 minutes, with the page automatically refreshed every 10 minutes)

About weather observations | Map of Darwin area stations | Latest observations for Darwin area | Other Formats
Station Details ID: 014031 Name: CHARLES POINT Lat: -12.39 Lon: 130.63 Height: 14.0 m
Data from the previous 72 hours. | See also: Recent months for locations in Northern Territory
Date/Time
CST
Temp
°C
App
Temp
°C
Dew
Point
°C
Rel
Hum
%
Delta-T
°C
Wind Press
QNH
hPa
Press
MSL
hPa
Rain since
9am
mm
Dir  Spd
km/h
Gust
km/h
Spd
kts
Gust
kts
21/08:00pm 22.9 23.8 15.2 62 4.6 W 4 6 2 3 1014.3 1014.2 0.0
21/07:30pm 23.0 24.0 15.3 62 4.6 W 4 6 2 3 1014.1 1014.0 0.0
21/07:00pm - - - - - W 2 6 1 3 1013.8 1013.7 0.0
21/06:30pm - - - - - WNW 6 9 3 5 1013.4 1013.3 0.0
21/06:00pm - - - - - NNW 7 13 4 7 1013.0 1012.9 0.0
21/05:30pm - - - - - NNW 9 11 5 6 1012.6 1012.5 0.0
21/05:00pm - - - - - NNW 11 13 6 7 1012.3 1012.2 0.0
21/04:30pm - - - - - NNW 9 15 5 8 1012.1 1012.0 0.0
21/04:00pm - - - - - NNE 11 15 6 8 1012.0 1011.9 0.0
21/03:30pm - - - - - NNE 9 13 5 7 1012.2 1012.1 0.0
21/03:00pm - - - - - NNE 7 11 4 6 1012.3 1012.2 0.0
21/02:30pm - - - - - NNE 9 15 5 8 1012.7 1012.6 0.0
21/02:00pm - - - - - ENE 7 13 4 7 1012.9 1012.8 0.0
21/01:30pm - - - - - ENE 9 17 5 9 1013.5 1013.4 0.0
21/01:00pm - - - - - E 11 20 6 11 1014.0 1013.9 0.0
21/12:30pm - - - - - E 13 20 7 11 1014.4 1014.3 0.0
21/12:00pm - - - - - E 15 26 8 14 1014.8 1014.7 0.0
21/11:30am 28.7 25.4 7.9 27 11.3 ESE 15 30 8 16 1015.1 1015.0 0.0
21/11:00am - - - - - ESE 11 26 6 14 1015.5 1015.4 0.0
21/10:30am - - - - - ESE 13 24 7 13 1015.8 1015.7 0.0
21/10:00am 26.2 23.2 7.7 31 9.9 ESE 13 20 7 11 1015.7 1015.6 0.0
21/09:30am 24.9 22.4 8.0 34 9.0 SE 11 19 6 10 1015.6 1015.5 0.0
21/09:00am 23.8 21.0 8.6 38 8.1 SE 13 20 7 11 1015.3 1015.2 0.0
21/08:30am 22.6 20.9 9.7 44 7.0 SE 9 17 5 9 1014.9 1014.8 0.0
21/08:00am 21.8 19.7 8.3 42 7.1 SE 9 17 5 9 1014.5 1014.4 0.0
21/07:30am 20.9 17.6 6.4 39 7.3 SE 13 20 7 11 1014.0 1013.9 0.0
21/07:00am 20.4 17.8 7.7 44 6.5 SE 11 20 6 11 1013.9 1013.8 0.0
21/06:30am 20.5 18.1 8.5 46 6.3 SSE 11 19 6 10 1013.7 1013.6 0.0
21/06:00am 21.2 18.8 8.5 44 6.7 SSE 11 19 6 10 1013.3 1013.2 0.0
21/05:30am 20.5 18.5 10.0 51 5.7 SSE 11 15 6 8 1013.1 1013.0 0.0
21/05:00am 20.7 18.8 10.5 52 5.5 SSE 11 17 6 9 1012.9 1012.8 0.0
21/04:30am 20.7 19.5 11.6 56 5.0 SSE 9 17 5 9 1012.8 1012.7 0.0
21/04:00am 20.8 19.9 12.5 59 4.7 SSE 9 13 5 7 1012.7 1012.6 0.0
21/03:30am 21.1 20.3 13.0 60 4.6 S 9 15 5 8 1012.6 1012.5 0.0
21/03:00am 21.0 21.3 14.9 68 3.6 S 7 11 4 6 1012.6 1012.5 0.0
21/02:30am 21.4 21.7 15.0 67 3.8 S 7 9 4 5 1012.7 1012.6 0.0
21/02:00am 21.5 21.9 15.3 68 3.7 SSW 7 9 4 5 1013.0 1012.9 0.0
21/01:30am 21.3 21.5 14.7 66 3.9 S 7 9 4 5 1013.1 1013.0 0.0
21/01:00am 21.5 22.4 16.0 71 3.3 S 6 9 3 5 1013.2 1013.1 0.0
21/12:30am 21.9 23.1 17.3 75 2.8 S 7 11 4 6 1013.3 1013.2 0.0
21/12:00am 22.0 23.5 18.0 78 2.5 SSW 7 9 4 5 1013.4 1013.3 0.0
 
Date/Time
CST
Temp
°C
App
Temp
°C
Dew
Point
°C
Rel
Hum
%
Delta-T
°C
Wind Press
QNH
hPa
Press
MSL
hPa
Rain since
9am
mm
Dir  Spd
km/h
Gust
km/h
Spd
kts
Gust
kts
20/11:30pm 22.2 24.0 18.2 78 2.5 SSW 6 9 3 5 1013.6 1013.5 0.0
20/11:00pm 23.3 25.4 18.0 72 3.3 SW 4 6 2 3 1013.8 1013.7 0.0
20/10:30pm 23.3 25.2 17.7 71 3.5 WSW 4 7 2 4 1014.0 1013.9 0.0
20/10:00pm 23.5 25.5 17.9 71 3.5 SW 4 9 2 5 1013.8 1013.7 0.0
20/09:30pm 23.4 25.4 17.8 71 3.5 SW 4 6 2 3 1013.7 1013.6 0.0
20/09:00pm 23.5 25.3 17.5 69 3.7 SW 4 7 2 4 1013.5 1013.4 0.0
20/08:30pm 24.0 26.1 17.3 66 4.2 SW 2 6 1 3 1012.9 1012.8 0.0
20/08:00pm 24.0 25.4 17.3 66 4.2 WSW 6 7 3 4 1012.1 1012.0 0.0
20/07:30pm 24.1 25.5 16.4 62 4.7 WSW 4 6 2 3 1011.7 1011.6 0.0
20/07:00pm 24.7 26.0 16.2 59 5.2 WSW 4 7 2 4 1011.3 1011.2 0.0
20/06:30pm 26.7 28.3 16.0 52 6.6 W 2 4 1 2 1010.9 1010.8 0.0
20/06:00pm 28.5 29.6 16.7 48 7.4 W 6 9 3 5 1010.6 1010.5 0.0
20/05:30pm 29.6 30.4 16.4 45 8.2 WNW 7 11 4 6 1010.4 1010.3 0.0
20/05:00pm 31.0 32.5 14.6 37 10.0 CALM 0 4 0 2 1010.1 1010.0 0.0
20/04:30pm 30.3 31.4 15.6 41 9.1 NNE 4 6 2 3 1010.0 1009.9 0.0
20/04:00pm 30.5 31.5 15.4 40 9.3 NNE 4 7 2 4 1010.2 1010.1 0.0
20/03:30pm 29.5 29.8 14.9 41 8.9 N 7 11 4 6 1010.4 1010.3 0.0
20/03:00pm 29.3 29.1 14.7 41 8.9 NNE 9 13 5 7 1010.6 1010.5 0.0
20/02:30pm 31.6 31.3 13.4 33 10.9 NE 7 13 4 7 1011.0 1010.9 0.0
20/02:00pm 31.2 30.5 12.1 31 11.2 ENE 7 11 4 6 1011.5 1011.4 0.0
20/01:30pm 30.5 29.3 11.5 31 11.0 ENE 9 15 5 8 1012.0 1011.9 0.0
20/01:00pm 30.6 28.6 10.0 28 11.7 E 11 20 6 11 1012.5 1012.4 0.0
20/12:30pm 30.1 28.6 10.6 30 11.1 E 9 17 5 9 1013.1 1013.0 0.0
20/12:00pm 29.6 27.8 10.7 31 10.8 ESE 11 19 6 10 1013.6 1013.5 0.0
20/11:30am 28.7 27.0 11.3 34 10.0 ESE 11 22 6 12 1014.1 1014.0 0.0
20/11:00am 28.4 27.0 13.5 40 8.8 ESE 13 20 7 11 1014.5 1014.4 0.0
20/10:30am 27.2 26.0 12.8 41 8.4 ESE 11 22 6 12 1014.6 1014.5 0.0
20/10:00am 26.2 25.1 14.3 48 7.1 ESE 13 22 7 12 1014.6 1014.5 0.0
20/09:30am 24.8 24.9 16.5 60 5.1 SE 11 17 6 9 1014.5 1014.4 0.0
20/09:00am 24.0 25.1 18.9 73 3.2 SSE 11 17 6 9 1014.3 1014.2 0.0
20/08:30am 23.7 25.9 19.6 78 2.6 SSE 7 13 4 7 1013.8 1013.7 0.0
20/08:00am 22.6 24.7 19.4 82 2.0 SE 7 13 4 7 1013.4 1013.3 0.0
20/07:30am 21.0 22.9 18.9 88 1.3 SSE 7 11 4 6 1013.2 1013.1 0.0
20/07:00am 20.4 22.1 18.5 89 1.2 SSE 7 9 4 5 1012.7 1012.6 0.0
20/06:30am 20.1 22.0 18.6 91 0.9 SSE 6 9 3 5 1012.4 1012.3 0.0
20/06:00am 19.7 21.5 18.2 91 0.9 SSE 6 7 3 4 1012.4 1012.3 0.0
20/05:30am 20.2 22.1 18.5 90 1.1 SSE 6 6 3 3 1012.4 1012.3 0.0
20/05:00am 21.0 23.3 18.6 86 1.5 SE 4 6 2 3 1012.3 1012.2 0.0
20/04:30am 21.5 24.0 19.1 86 1.5 SE 4 7 2 4 1012.2 1012.1 0.0
20/04:00am 21.3 23.1 18.7 85 1.6 S 7 9 4 5 1012.0 1011.9 0.0
20/03:30am 21.9 23.9 19.1 84 1.8 S 7 11 4 6 1012.0 1011.9 0.0
20/03:00am 22.0 24.1 19.4 85 1.7 S 7 11 4 6 1011.9 1011.8 0.0
20/02:30am 22.1 24.3 19.6 86 1.6 S 7 9 4 5 1012.0 1011.9 0.0
20/02:00am 22.3 24.7 20.0 87 1.5 S 7 13 4 7 1012.2 1012.1 0.0
20/01:30am 22.6 24.7 20.1 86 1.6 S 9 13 5 7 1012.5 1012.4 0.0
20/01:00am 22.9 25.0 20.2 85 1.7 S 9 11 5 6 1012.8 1012.7 0.0
20/12:30am 23.1 25.7 20.4 85 1.8 S 7 11 4 6 1012.9 1012.8 0.0
20/12:00am 23.3 25.4 20.2 83 2.0 S 9 11 5 6 1013.0 1012.9 0.0
 
Date/Time
CST
Temp
°C
App
Temp
°C
Dew
Point
°C
Rel
Hum
%
Delta-T
°C
Wind Press
QNH
hPa
Press
MSL
hPa
Rain since
9am
mm
Dir  Spd
km/h
Gust
km/h
Spd
kts
Gust
kts
19/11:30pm 23.3 25.9 20.4 84 1.9 S 7 11 4 6 1013.1 1013.0 0.0
19/11:00pm 23.5 26.2 20.6 84 1.9 S 7 13 4 7 1013.3 1013.2 0.0
19/10:30pm 23.7 26.0 20.6 83 2.0 S 9 11 5 6 1013.4 1013.3 0.0
19/10:00pm 23.3 25.5 19.7 80 2.3 S 7 11 4 6 1013.4 1013.3 0.0
19/09:30pm 23.5 25.5 19.2 77 2.7 S 7 11 4 6 1013.3 1013.2 0.0
19/09:00pm 22.9 24.9 19.1 79 2.4 SSE 7 9 4 5 1013.0 1012.9 0.0
19/08:30pm 23.1 25.4 19.5 80 2.3 NE 6 11 3 6 1012.8 1012.7 0.0
19/08:00pm 23.8 27.4 19.7 78 2.6 CALM 0 0 0 0 1012.5 1012.4 0.0
19/07:30pm 24.4 27.9 19.5 74 3.1 CALM 0 0 0 0 1012.2 1012.1 0.0
19/07:00pm 25.8 29.1 19.2 67 4.2 CALM 0 0 0 0 1011.8 1011.7 0.0
19/06:30pm 27.6 30.0 19.7 62 5.1 NNE 6 9 3 5 1011.4 1011.3 0.0
19/06:00pm 28.1 29.4 19.3 58 5.7 NNE 11 15 6 8 1011.0 1010.9 0.0
19/05:30pm 28.6 30.0 19.5 58 5.9 N 11 15 6 8 1010.9 1010.8 0.0
19/05:00pm 28.4 29.5 19.6 59 5.7 N 13 15 7 8 1010.8 1010.7 0.0
19/04:30pm 28.6 29.6 19.5 58 5.9 N 13 17 7 9 1010.7 1010.6 0.0
19/04:00pm 29.2 30.0 19.8 57 6.2 N 15 19 8 10 1010.6 1010.5 0.0
19/03:30pm 29.0 28.8 19.3 55 6.3 N 19 20 10 11 1010.6 1010.5 0.0
19/03:00pm 31.4 33.4 19.1 48 8.0 NNE 7 13 4 7 1010.8 1010.7 0.0
19/02:30pm 31.7 32.9 18.3 45 8.7 NE 9 15 5 8 1011.1 1011.0 0.0
19/02:00pm 31.3 32.4 17.9 44 8.6 NE 9 15 5 8 1011.7 1011.6 0.0
19/01:30pm 31.1 30.6 15.9 40 9.5 NE 13 17 7 9 1012.1 1012.0 0.0
19/01:00pm 30.4 30.6 16.8 44 8.6 NE 11 19 6 10 1012.6 1012.5 0.0
19/12:30pm 31.1 31.4 15.9 40 9.5 ENE 9 15 5 8 1013.1 1013.0 0.0
19/12:00pm 30.3 30.4 15.6 41 9.1 E 9 22 5 12 1013.6 1013.5 0.0
19/11:30am 29.6 28.7 13.8 38 9.5 ESE 11 20 6 11 1013.9 1013.8 0.0
19/11:00am 28.8 28.2 14.6 42 8.6 ESE 11 20 6 11 1014.3 1014.2 0.0
19/10:30am 28.1 28.1 15.1 45 7.9 ESE 9 17 5 9 1014.7 1014.6 0.0
19/10:00am 27.6 27.5 15.9 49 7.2 SE 11 17 6 9 1015.0 1014.9 0.0
19/09:30am 26.6 27.3 17.1 56 5.9 SE 9 15 5 8 1015.0 1014.9 0.0
19/09:00am 24.9 25.5 16.9 61 4.9 SE 9 15 5 8 1015.1 1015.0 0.2
19/08:30am 24.0 24.5 16.5 63 4.6 SE 9 15 5 8 1014.8 1014.7 0.2
19/08:00am 23.0 23.4 17.2 70 3.6 SSE 11 17 6 9 1014.4 1014.3 0.2
19/07:30am 22.4 23.0 17.8 75 2.9 SSE 11 17 6 9 1013.9 1013.8 0.2
19/07:00am 22.4 22.9 18.4 78 2.5 S 13 19 7 10 1013.6 1013.5 0.0
19/06:30am 23.1 24.0 18.4 75 3.0 SSE 11 15 6 8 1013.3 1013.2 0.0
19/06:00am 23.2 24.2 18.7 76 2.8 SSE 11 17 6 9 1013.0 1012.9 0.0
19/05:30am 23.2 24.7 19.8 81 2.2 S 11 17 6 9 1012.7 1012.6 0.0
19/05:00am 23.1 25.0 20.6 86 1.6 S 11 15 6 8 1012.6 1012.5 0.0
19/04:30am 23.2 25.6 21.5 90 1.1 S 11 15 6 8 1012.4 1012.3 0.0
19/04:00am 23.7 27.3 22.3 92 0.9 S 7 11 4 6 1012.6 1012.5 0.0
19/03:30am 24.0 27.8 22.4 91 1.1 S 6 9 3 5 1012.8 1012.7 0.0
19/03:00am 24.4 28.4 22.8 91 1.1 S 6 11 3 6 1013.0 1012.9 0.0
19/02:30am 24.7 28.7 22.8 89 1.3 SSW 6 9 3 5 1013.2 1013.1 0.0
19/02:00am 25.0 29.0 22.7 87 1.5 SW 6 13 3 7 1013.5 1013.4 0.0
19/01:30am 24.9 28.5 22.4 86 1.7 SSW 7 13 4 7 1013.8 1013.7 0.0
19/01:00am 24.6 28.1 22.1 86 1.7 SSW 7 13 4 7 1014.2 1014.1 0.0
19/12:30am 24.5 28.2 22.6 89 1.3 SSW 7 13 4 7 1014.2 1014.1 0.0
19/12:00am 24.3 28.1 22.4 89 1.3 SW 6 9 3 5 1014.6 1014.5 0.0
 
Date/Time
CST
Temp
°C
App
Temp
°C
Dew
Point
°C
Rel
Hum
%
Delta-T
°C
Wind Press
QNH
hPa
Press
MSL
hPa
Rain since
9am
mm
Dir  Spd
km/h
Gust
km/h
Spd
kts
Gust
kts
18/11:30pm 24.5 28.3 22.4 88 1.4 SW 6 11 3 6 1014.8 1014.7 0.0
18/11:00pm 24.4 27.9 21.9 86 1.7 SSW 6 7 3 4 1014.9 1014.8 0.0
18/10:30pm 24.3 28.1 21.6 85 1.8 SW 4 6 2 3 1014.9 1014.8 0.0
18/10:00pm 24.6 28.3 21.5 83 2.1 WSW 4 6 2 3 1014.8 1014.7 0.0
18/09:30pm 25.3 28.9 22.0 82 2.2 SW 6 9 3 5 1014.6 1014.5 0.0
18/09:00pm 25.3 28.8 21.8 81 2.3 WSW 6 11 3 6 1014.2 1014.1 0.0
18/08:30pm 25.4 28.9 21.9 81 2.3 WSW 6 11 3 6 1014.1 1014.0 0.0

Latest Capital City Observations: Canberra | Sydney | Melbourne | Brisbane | Adelaide | Perth | Hobart | Darwin

Other Formats:

Comma delimited format used in spreadsheet applications
http://www.bom.gov.au/fwo/IDD60901/IDD60901.99510.axf

JavaScript Object Notation format (JSON) in row-major order
http://www.bom.gov.au/fwo/IDD60901/IDD60901.99510.json